sensor_id;sensor_type;location;lat;lon;timestamp;P1;durP1;ratioP1;P2;durP2;ratioP2
50309;SDS011;36207;51.850;21.698;2023-09-19T00:00:37;10.70;;;8.60;;
50309;SDS011;36207;51.850;21.698;2023-09-19T00:03:23;13.50;;;9.40;;
50309;SDS011;36207;51.850;21.698;2023-09-19T00:05:51;13.00;;;8.80;;
50309;SDS011;36207;51.850;21.698;2023-09-19T00:08:17;11.50;;;8.70;;
50309;SDS011;36207;51.850;21.698;2023-09-19T00:10:47;11.30;;;8.80;;
50309;SDS011;36207;51.850;21.698;2023-09-19T00:13:14;12.00;;;8.60;;
50309;SDS011;36207;51.850;21.698;2023-09-19T00:15:40;11.00;;;8.70;;
50309;SDS011;36207;51.850;21.698;2023-09-19T00:18:14;12.20;;;8.80;;
50309;SDS011;36207;51.850;21.698;2023-09-19T00:20:41;11.50;;;9.00;;
50309;SDS011;36207;51.850;21.698;2023-09-19T00:23:08;13.30;;;8.90;;
50309;SDS011;36207;51.850;21.698;2023-09-19T00:25:34;13.90;;;8.80;;
50309;SDS011;36207;51.850;21.698;2023-09-19T00:28:01;10.90;;;8.60;;
50309;SDS011;36207;51.850;21.698;2023-09-19T00:30:28;15.00;;;9.30;;
50309;SDS011;36207;51.850;21.698;2023-09-19T00:32:54;14.50;;;9.30;;
50309;SDS011;36207;51.850;21.698;2023-09-19T00:35:20;10.70;;;8.60;;
50309;SDS011;36207;51.850;21.698;2023-09-19T00:37:49;14.10;;;9.50;;
50309;SDS011;36207;51.850;21.698;2023-09-19T00:40:16;13.70;;;8.60;;
50309;SDS011;36207;51.850;21.698;2023-09-19T00:42:43;12.00;;;8.30;;
50309;SDS011;36207;51.850;21.698;2023-09-19T00:45:11;11.50;;;8.70;;
50309;SDS011;36207;51.850;21.698;2023-09-19T00:47:42;12.30;;;9.00;;
50309;SDS011;36207;51.850;21.698;2023-09-19T00:50:11;14.10;;;9.10;;
50309;SDS011;36207;51.850;21.698;2023-09-19T00:52:40;16.00;;;8.90;;
50309;SDS011;36207;51.850;21.698;2023-09-19T00:55:08;12.40;;;8.90;;
50309;SDS011;36207;51.850;21.698;2023-09-19T00:57:36;11.30;;;9.00;;
50309;SDS011;36207;51.850;21.698;2023-09-19T01:00:04;11.40;;;8.60;;
50309;SDS011;36207;51.850;21.698;2023-09-19T01:02:33;10.50;;;9.00;;
50309;SDS011;36207;51.850;21.698;2023-09-19T01:05:00;12.50;;;8.70;;
50309;SDS011;36207;51.850;21.698;2023-09-19T01:07:27;11.60;;;9.10;;
50309;SDS011;36207;51.850;21.698;2023-09-19T01:10:00;13.70;;;9.30;;
50309;SDS011;36207;51.850;21.698;2023-09-19T01:15:32;11.30;;;8.60;;
50309;SDS011;36207;51.850;21.698;2023-09-19T01:31:38;14.70;;;8.80;;
50309;SDS011;36207;51.850;21.698;2023-09-19T01:34:05;11.60;;;8.60;;
50309;SDS011;36207;51.850;21.698;2023-09-19T01:36:33;12.00;;;9.10;;
50309;SDS011;36207;51.850;21.698;2023-09-19T01:39:05;12.00;;;9.40;;
50309;SDS011;36207;51.850;21.698;2023-09-19T01:44:40;11.90;;;8.80;;
50309;SDS011;36207;51.850;21.698;2023-09-19T01:47:34;11.00;;;8.90;;
50309;SDS011;36207;51.850;21.698;2023-09-19T01:50:30;11.30;;;8.70;;
50309;SDS011;36207;51.850;21.698;2023-09-19T01:53:21;11.70;;;8.80;;
50309;SDS011;36207;51.850;21.698;2023-09-19T01:55:50;12.30;;;8.90;;
50309;SDS011;36207;51.850;21.698;2023-09-19T01:58:26;11.40;;;8.70;;
50309;SDS011;36207;51.850;21.698;2023-09-19T02:00:59;11.00;;;8.00;;
50309;SDS011;36207;51.850;21.698;2023-09-19T02:03:26;11.40;;;8.90;;
50309;SDS011;36207;51.850;21.698;2023-09-19T02:05:54;13.90;;;9.10;;
50309;SDS011;36207;51.850;21.698;2023-09-19T02:08:20;12.20;;;9.00;;
50309;SDS011;36207;51.850;21.698;2023-09-19T02:10:51;11.30;;;8.90;;
50309;SDS011;36207;51.850;21.698;2023-09-19T02:13:18;12.40;;;8.70;;
50309;SDS011;36207;51.850;21.698;2023-09-19T02:15:45;12.60;;;8.50;;
50309;SDS011;36207;51.850;21.698;2023-09-19T02:18:14;11.80;;;8.70;;
50309;SDS011;36207;51.850;21.698;2023-09-19T02:20:41;11.60;;;8.80;;
50309;SDS011;36207;51.850;21.698;2023-09-19T02:23:07;13.10;;;9.10;;
50309;SDS011;36207;51.850;21.698;2023-09-19T02:25:34;12.80;;;8.80;;
50309;SDS011;36207;51.850;21.698;2023-09-19T02:28:04;11.00;;;8.30;;
50309;SDS011;36207;51.850;21.698;2023-09-19T02:30:31;10.80;;;8.20;;
50309;SDS011;36207;51.850;21.698;2023-09-19T02:32:58;15.10;;;8.50;;
50309;SDS011;36207;51.850;21.698;2023-09-19T02:35:27;13.00;;;8.40;;
50309;SDS011;36207;51.850;21.698;2023-09-19T02:37:54;13.00;;;8.60;;
50309;SDS011;36207;51.850;21.698;2023-09-19T02:40:20;12.10;;;8.70;;
50309;SDS011;36207;51.850;21.698;2023-09-19T02:42:47;14.70;;;8.70;;
50309;SDS011;36207;51.850;21.698;2023-09-19T02:45:18;14.30;;;8.50;;
50309;SDS011;36207;51.850;21.698;2023-09-19T02:47:45;12.30;;;8.00;;
50309;SDS011;36207;51.850;21.698;2023-09-19T02:50:12;12.10;;;8.70;;
50309;SDS011;36207;51.850;21.698;2023-09-19T02:52:42;12.20;;;8.70;;
50309;SDS011;36207;51.850;21.698;2023-09-19T02:55:10;10.80;;;8.50;;
50309;SDS011;36207;51.850;21.698;2023-09-19T02:57:38;10.80;;;8.20;;
50309;SDS011;36207;51.850;21.698;2023-09-19T03:00:07;11.50;;;8.60;;
50309;SDS011;36207;51.850;21.698;2023-09-19T03:02:36;12.10;;;8.10;;
50309;SDS011;36207;51.850;21.698;2023-09-19T03:05:04;11.20;;;8.60;;
50309;SDS011;36207;51.850;21.698;2023-09-19T03:07:31;13.90;;;8.90;;
50309;SDS011;36207;51.850;21.698;2023-09-19T03:09:57;9.70;;;8.00;;
50309;SDS011;36207;51.850;21.698;2023-09-19T03:12:22;12.50;;;8.50;;
50309;SDS011;36207;51.850;21.698;2023-09-19T03:14:48;13.50;;;8.70;;
50309;SDS011;36207;51.850;21.698;2023-09-19T03:17:16;13.60;;;8.50;;
50309;SDS011;36207;51.850;21.698;2023-09-19T03:19:42;10.70;;;8.30;;
50309;SDS011;36207;51.850;21.698;2023-09-19T03:22:07;11.90;;;8.10;;
50309;SDS011;36207;51.850;21.698;2023-09-19T03:24:34;13.80;;;8.10;;
50309;SDS011;36207;51.850;21.698;2023-09-19T03:27:01;14.40;;;7.80;;
50309;SDS011;36207;51.850;21.698;2023-09-19T03:29:28;12.20;;;8.10;;
50309;SDS011;36207;51.850;21.698;2023-09-19T03:31:54;12.70;;;8.40;;
50309;SDS011;36207;51.850;21.698;2023-09-19T03:34:21;12.90;;;8.40;;
50309;SDS011;36207;51.850;21.698;2023-09-19T03:36:47;9.80;;;7.30;;
50309;SDS011;36207;51.850;21.698;2023-09-19T03:39:13;11.60;;;8.40;;
50309;SDS011;36207;51.850;21.698;2023-09-19T03:41:41;12.90;;;8.50;;
50309;SDS011;36207;51.850;21.698;2023-09-19T03:44:07;12.70;;;7.90;;
50309;SDS011;36207;51.850;21.698;2023-09-19T03:46:34;11.90;;;8.20;;
50309;SDS011;36207;51.850;21.698;2023-09-19T03:49:01;12.40;;;8.50;;
50309;SDS011;36207;51.850;21.698;2023-09-19T03:51:28;10.90;;;7.50;;
50309;SDS011;36207;51.850;21.698;2023-09-19T03:53:54;11.00;;;8.40;;
50309;SDS011;36207;51.850;21.698;2023-09-19T03:56:20;10.70;;;7.90;;
50309;SDS011;36207;51.850;21.698;2023-09-19T03:58:46;12.80;;;8.60;;
50309;SDS011;36207;51.850;21.698;2023-09-19T04:01:11;11.30;;;8.10;;
50309;SDS011;36207;51.850;21.698;2023-09-19T04:03:39;10.20;;;7.80;;
50309;SDS011;36207;51.850;21.698;2023-09-19T04:08:39;11.50;;;8.30;;
50309;SDS011;36207;51.850;21.698;2023-09-19T04:11:05;15.10;;;8.50;;
50309;SDS011;36207;51.850;21.698;2023-09-19T04:13:31;13.60;;;8.20;;
50309;SDS011;36207;51.850;21.698;2023-09-19T04:15:57;14.00;;;8.20;;
50309;SDS011;36207;51.850;21.698;2023-09-19T04:18:23;13.10;;;8.00;;
50309;SDS011;36207;51.850;21.698;2023-09-19T04:20:49;15.00;;;7.50;;
50309;SDS011;36207;51.850;21.698;2023-09-19T04:23:16;11.30;;;8.00;;
50309;SDS011;36207;51.850;21.698;2023-09-19T04:25:42;13.90;;;8.10;;
50309;SDS011;36207;51.850;21.698;2023-09-19T04:28:09;12.00;;;8.10;;
50309;SDS011;36207;51.850;21.698;2023-09-19T04:30:38;11.80;;;7.70;;
50309;SDS011;36207;51.850;21.698;2023-09-19T04:33:07;16.20;;;7.70;;
50309;SDS011;36207;51.850;21.698;2023-09-19T04:35:34;14.40;;;8.30;;
50309;SDS011;36207;51.850;21.698;2023-09-19T04:38:00;12.50;;;7.90;;
50309;SDS011;36207;51.850;21.698;2023-09-19T04:40:27;12.80;;;8.80;;
50309;SDS011;36207;51.850;21.698;2023-09-19T04:42:53;9.90;;;7.80;;
50309;SDS011;36207;51.850;21.698;2023-09-19T04:45:23;10.70;;;7.70;;
50309;SDS011;36207;51.850;21.698;2023-09-19T04:47:50;11.90;;;7.30;;
50309;SDS011;36207;51.850;21.698;2023-09-19T04:50:16;11.70;;;7.70;;
50309;SDS011;36207;51.850;21.698;2023-09-19T04:52:43;12.10;;;8.20;;
50309;SDS011;36207;51.850;21.698;2023-09-19T04:55:11;11.50;;;7.80;;
50309;SDS011;36207;51.850;21.698;2023-09-19T04:57:45;12.10;;;8.20;;
50309;SDS011;36207;51.850;21.698;2023-09-19T05:00:16;12.50;;;8.00;;
50309;SDS011;36207;51.850;21.698;2023-09-19T05:02:45;14.40;;;7.90;;
50309;SDS011;36207;51.850;21.698;2023-09-19T05:05:12;10.80;;;8.00;;
50309;SDS011;36207;51.850;21.698;2023-09-19T05:07:42;11.20;;;8.10;;
50309;SDS011;36207;51.850;21.698;2023-09-19T05:10:09;12.10;;;7.90;;
50309;SDS011;36207;51.850;21.698;2023-09-19T05:12:38;11.20;;;8.20;;
50309;SDS011;36207;51.850;21.698;2023-09-19T05:15:05;12.00;;;7.50;;
50309;SDS011;36207;51.850;21.698;2023-09-19T05:17:35;15.10;;;7.90;;
50309;SDS011;36207;51.850;21.698;2023-09-19T05:20:02;15.40;;;7.90;;
50309;SDS011;36207;51.850;21.698;2023-09-19T05:22:42;11.70;;;8.30;;
50309;SDS011;36207;51.850;21.698;2023-09-19T05:25:09;15.60;;;8.30;;
50309;SDS011;36207;51.850;21.698;2023-09-19T05:27:36;11.70;;;7.90;;
50309;SDS011;36207;51.850;21.698;2023-09-19T05:30:02;16.80;;;8.60;;
50309;SDS011;36207;51.850;21.698;2023-09-19T05:32:28;13.70;;;8.20;;
50309;SDS011;36207;51.850;21.698;2023-09-19T05:34:54;10.90;;;7.30;;
50309;SDS011;36207;51.850;21.698;2023-09-19T05:37:22;11.00;;;7.90;;
50309;SDS011;36207;51.850;21.698;2023-09-19T05:39:49;10.40;;;7.60;;
50309;SDS011;36207;51.850;21.698;2023-09-19T05:42:15;11.30;;;8.00;;
50309;SDS011;36207;51.850;21.698;2023-09-19T05:44:41;11.70;;;8.40;;
50309;SDS011;36207;51.850;21.698;2023-09-19T05:47:07;11.40;;;8.30;;
50309;SDS011;36207;51.850;21.698;2023-09-19T05:49:35;11.00;;;8.00;;
50309;SDS011;36207;51.850;21.698;2023-09-19T05:52:05;11.00;;;8.40;;
50309;SDS011;36207;51.850;21.698;2023-09-19T05:54:32;11.10;;;8.10;;
50309;SDS011;36207;51.850;21.698;2023-09-19T05:57:00;11.70;;;8.30;;
50309;SDS011;36207;51.850;21.698;2023-09-19T05:59:27;11.40;;;8.50;;
50309;SDS011;36207;51.850;21.698;2023-09-19T06:01:53;13.10;;;8.00;;
50309;SDS011;36207;51.850;21.698;2023-09-19T06:04:19;11.60;;;7.70;;
50309;SDS011;36207;51.850;21.698;2023-09-19T06:06:45;11.60;;;7.90;;
50309;SDS011;36207;51.850;21.698;2023-09-19T06:09:14;15.80;;;8.30;;
50309;SDS011;36207;51.850;21.698;2023-09-19T06:11:43;12.40;;;8.80;;
50309;SDS011;36207;51.850;21.698;2023-09-19T06:14:09;18.90;;;9.50;;
50309;SDS011;36207;51.850;21.698;2023-09-19T06:16:36;14.60;;;9.60;;
50309;SDS011;36207;51.850;21.698;2023-09-19T06:19:03;14.70;;;8.40;;
50309;SDS011;36207;51.850;21.698;2023-09-19T06:21:34;13.20;;;8.20;;
50309;SDS011;36207;51.850;21.698;2023-09-19T06:24:00;13.20;;;8.00;;
50309;SDS011;36207;51.850;21.698;2023-09-19T06:26:26;13.20;;;8.10;;
50309;SDS011;36207;51.850;21.698;2023-09-19T06:28:56;10.50;;;7.80;;
50309;SDS011;36207;51.850;21.698;2023-09-19T06:31:22;13.10;;;8.00;;
50309;SDS011;36207;51.850;21.698;2023-09-19T06:33:52;11.10;;;8.10;;
50309;SDS011;36207;51.850;21.698;2023-09-19T06:36:18;10.80;;;8.10;;
50309;SDS011;36207;51.850;21.698;2023-09-19T06:38:45;10.80;;;8.00;;
50309;SDS011;36207;51.850;21.698;2023-09-19T06:41:11;9.90;;;7.50;;
50309;SDS011;36207;51.850;21.698;2023-09-19T06:43:37;13.10;;;7.70;;
50309;SDS011;36207;51.850;21.698;2023-09-19T06:46:04;14.00;;;8.60;;
50309;SDS011;36207;51.850;21.698;2023-09-19T06:48:32;11.10;;;8.40;;
50309;SDS011;36207;51.850;21.698;2023-09-19T06:50:59;13.10;;;8.50;;
50309;SDS011;36207;51.850;21.698;2023-09-19T06:53:31;13.50;;;8.10;;
50309;SDS011;36207;51.850;21.698;2023-09-19T06:55:58;10.90;;;8.60;;
50309;SDS011;36207;51.850;21.698;2023-09-19T06:58:24;11.80;;;8.50;;
50309;SDS011;36207;51.850;21.698;2023-09-19T07:00:50;13.30;;;8.20;;
50309;SDS011;36207;51.850;21.698;2023-09-19T07:03:16;13.80;;;8.00;;
50309;SDS011;36207;51.850;21.698;2023-09-19T07:05:44;12.00;;;8.10;;
50309;SDS011;36207;51.850;21.698;2023-09-19T07:08:10;11.20;;;8.20;;
50309;SDS011;36207;51.850;21.698;2023-09-19T07:10:38;12.80;;;8.40;;
50309;SDS011;36207;51.850;21.698;2023-09-19T07:13:14;11.30;;;8.50;;
50309;SDS011;36207;51.850;21.698;2023-09-19T07:15:42;14.80;;;8.90;;
50309;SDS011;36207;51.850;21.698;2023-09-19T07:18:16;15.40;;;8.40;;
50309;SDS011;36207;51.850;21.698;2023-09-19T07:20:43;12.90;;;8.50;;
50309;SDS011;36207;51.850;21.698;2023-09-19T07:23:19;15.50;;;8.70;;
50309;SDS011;36207;51.850;21.698;2023-09-19T07:25:47;26.60;;;8.50;;
50309;SDS011;36207;51.850;21.698;2023-09-19T07:28:14;10.70;;;7.90;;
50309;SDS011;36207;51.850;21.698;2023-09-19T07:30:41;14.10;;;8.70;;
50309;SDS011;36207;51.850;21.698;2023-09-19T07:33:07;13.60;;;8.20;;
50309;SDS011;36207;51.850;21.698;2023-09-19T07:35:37;13.20;;;8.40;;
50309;SDS011;36207;51.850;21.698;2023-09-19T07:38:07;12.50;;;7.90;;
50309;SDS011;36207;51.850;21.698;2023-09-19T07:40:33;12.20;;;8.20;;
50309;SDS011;36207;51.850;21.698;2023-09-19T07:43:00;13.10;;;8.60;;
50309;SDS011;36207;51.850;21.698;2023-09-19T07:45:30;16.90;;;9.10;;
50309;SDS011;36207;51.850;21.698;2023-09-19T07:47:57;14.10;;;8.60;;
50309;SDS011;36207;51.850;21.698;2023-09-19T07:50:23;13.10;;;8.80;;
50309;SDS011;36207;51.850;21.698;2023-09-19T07:52:49;12.60;;;9.40;;
50309;SDS011;36207;51.850;21.698;2023-09-19T07:55:19;14.60;;;9.20;;
50309;SDS011;36207;51.850;21.698;2023-09-19T07:57:49;16.70;;;8.20;;
50309;SDS011;36207;51.850;21.698;2023-09-19T08:00:15;12.10;;;8.60;;
50309;SDS011;36207;51.850;21.698;2023-09-19T08:02:42;13.70;;;8.90;;
50309;SDS011;36207;51.850;21.698;2023-09-19T08:05:09;14.80;;;9.50;;
50309;SDS011;36207;51.850;21.698;2023-09-19T08:07:37;12.60;;;8.80;;
50309;SDS011;36207;51.850;21.698;2023-09-19T08:10:07;11.70;;;9.40;;
50309;SDS011;36207;51.850;21.698;2023-09-19T08:12:39;12.70;;;9.40;;
50309;SDS011;36207;51.850;21.698;2023-09-19T08:15:15;12.70;;;8.50;;
50309;SDS011;36207;51.850;21.698;2023-09-19T08:17:42;13.60;;;9.20;;
50309;SDS011;36207;51.850;21.698;2023-09-19T08:20:09;12.90;;;8.70;;
50309;SDS011;36207;51.850;21.698;2023-09-19T08:25:18;13.30;;;9.40;;
50309;SDS011;36207;51.850;21.698;2023-09-19T08:27:47;15.00;;;8.80;;
50309;SDS011;36207;51.850;21.698;2023-09-19T08:30:18;15.90;;;9.50;;
50309;SDS011;36207;51.850;21.698;2023-09-19T08:32:49;11.80;;;9.30;;
50309;SDS011;36207;51.850;21.698;2023-09-19T08:35:16;14.50;;;9.40;;
50309;SDS011;36207;51.850;21.698;2023-09-19T08:37:42;14.30;;;9.60;;
50309;SDS011;36207;51.850;21.698;2023-09-19T08:40:10;14.20;;;9.40;;
50309;SDS011;36207;51.850;21.698;2023-09-19T08:45:34;12.20;;;9.30;;
50309;SDS011;36207;51.850;21.698;2023-09-19T08:48:20;14.50;;;9.60;;
50309;SDS011;36207;51.850;21.698;2023-09-19T08:53:32;13.10;;;9.30;;
50309;SDS011;36207;51.850;21.698;2023-09-19T08:56:00;14.50;;;9.80;;
50309;SDS011;36207;51.850;21.698;2023-09-19T08:58:31;11.20;;;9.10;;
50309;SDS011;36207;51.850;21.698;2023-09-19T09:01:06;15.50;;;9.50;;
50309;SDS011;36207;51.850;21.698;2023-09-19T09:03:34;14.10;;;9.30;;
50309;SDS011;36207;51.850;21.698;2023-09-19T09:06:01;14.70;;;9.80;;
50309;SDS011;36207;51.850;21.698;2023-09-19T09:08:28;18.50;;;9.40;;
50309;SDS011;36207;51.850;21.698;2023-09-19T09:10:57;14.40;;;9.90;;
50309;SDS011;36207;51.850;21.698;2023-09-19T09:13:24;15.60;;;9.20;;
50309;SDS011;36207;51.850;21.698;2023-09-19T09:15:51;12.90;;;9.30;;
50309;SDS011;36207;51.850;21.698;2023-09-19T09:18:20;12.80;;;9.30;;
50309;SDS011;36207;51.850;21.698;2023-09-19T09:20:46;13.90;;;9.30;;
50309;SDS011;36207;51.850;21.698;2023-09-19T09:23:13;18.90;;;9.80;;
50309;SDS011;36207;51.850;21.698;2023-09-19T09:28:29;13.80;;;9.90;;
50309;SDS011;36207;51.850;21.698;2023-09-19T09:31:04;17.80;;;10.10;;
50309;SDS011;36207;51.850;21.698;2023-09-19T09:33:34;13.40;;;9.50;;
50309;SDS011;36207;51.850;21.698;2023-09-19T09:36:01;15.00;;;9.10;;
50309;SDS011;36207;51.850;21.698;2023-09-19T09:38:50;16.30;;;9.60;;
50309;SDS011;36207;51.850;21.698;2023-09-19T09:41:16;14.40;;;9.70;;
50309;SDS011;36207;51.850;21.698;2023-09-19T09:43:53;14.70;;;10.10;;
50309;SDS011;36207;51.850;21.698;2023-09-19T09:46:20;16.40;;;10.20;;
50309;SDS011;36207;51.850;21.698;2023-09-19T09:48:47;15.40;;;9.70;;
50309;SDS011;36207;51.850;21.698;2023-09-19T09:51:40;18.20;;;9.90;;
50309;SDS011;36207;51.850;21.698;2023-09-19T09:54:23;13.40;;;9.60;;
50309;SDS011;36207;51.850;21.698;2023-09-19T09:56:56;14.40;;;10.60;;
50309;SDS011;36207;51.850;21.698;2023-09-19T09:59:50;18.70;;;10.30;;
50309;SDS011;36207;51.850;21.698;2023-09-19T10:02:28;14.60;;;9.80;;
50309;SDS011;36207;51.850;21.698;2023-09-19T10:04:58;15.20;;;10.20;;
50309;SDS011;36207;51.850;21.698;2023-09-19T10:07:49;13.80;;;9.90;;
50309;SDS011;36207;51.850;21.698;2023-09-19T10:10:31;13.80;;;9.70;;
50309;SDS011;36207;51.850;21.698;2023-09-19T10:13:13;13.40;;;10.10;;
50309;SDS011;36207;51.850;21.698;2023-09-19T10:15:50;15.60;;;10.00;;
50309;SDS011;36207;51.850;21.698;2023-09-19T10:18:20;15.10;;;9.80;;
50309;SDS011;36207;51.850;21.698;2023-09-19T10:20:47;12.40;;;9.90;;
50309;SDS011;36207;51.850;21.698;2023-09-19T10:23:16;17.10;;;10.30;;
50309;SDS011;36207;51.850;21.698;2023-09-19T10:25:48;13.70;;;9.80;;
50309;SDS011;36207;51.850;21.698;2023-09-19T10:28:15;13.30;;;9.80;;
50309;SDS011;36207;51.850;21.698;2023-09-19T10:30:47;13.60;;;10.40;;
50309;SDS011;36207;51.850;21.698;2023-09-19T10:33:16;18.10;;;10.10;;
50309;SDS011;36207;51.850;21.698;2023-09-19T10:35:46;14.10;;;10.60;;
50309;SDS011;36207;51.850;21.698;2023-09-19T10:38:25;17.20;;;10.40;;
50309;SDS011;36207;51.850;21.698;2023-09-19T10:40:54;15.40;;;10.10;;
50309;SDS011;36207;51.850;21.698;2023-09-19T10:43:26;14.10;;;9.90;;
50309;SDS011;36207;51.850;21.698;2023-09-19T10:45:57;13.60;;;10.60;;
50309;SDS011;36207;51.850;21.698;2023-09-19T10:48:29;17.60;;;10.50;;
50309;SDS011;36207;51.850;21.698;2023-09-19T10:53:27;16.50;;;11.10;;
50309;SDS011;36207;51.850;21.698;2023-09-19T10:55:57;15.20;;;11.10;;
50309;SDS011;36207;51.850;21.698;2023-09-19T10:58:29;16.80;;;11.70;;
50309;SDS011;36207;51.850;21.698;2023-09-19T11:01:00;14.40;;;11.20;;
50309;SDS011;36207;51.850;21.698;2023-09-19T11:03:38;13.50;;;11.20;;
50309;SDS011;36207;51.850;21.698;2023-09-19T11:06:13;15.30;;;10.90;;
50309;SDS011;36207;51.850;21.698;2023-09-19T11:09:01;15.70;;;11.50;;
50309;SDS011;36207;51.850;21.698;2023-09-19T11:30:48;16.00;;;12.00;;
50309;SDS011;36207;51.850;21.698;2023-09-19T11:33:19;18.90;;;12.40;;
50309;SDS011;36207;51.850;21.698;2023-09-19T11:49:27;15.10;;;12.30;;
50309;SDS011;36207;51.850;21.698;2023-09-19T11:51:59;20.60;;;12.90;;
50309;SDS011;36207;51.850;21.698;2023-09-19T11:54:35;17.10;;;13.10;;
50309;SDS011;36207;51.850;21.698;2023-09-19T11:57:05;17.90;;;12.80;;
50309;SDS011;36207;51.850;21.698;2023-09-19T11:59:32;19.20;;;13.10;;
50309;SDS011;36207;51.850;21.698;2023-09-19T12:02:05;21.00;;;13.20;;
50309;SDS011;36207;51.850;21.698;2023-09-19T12:04:34;18.10;;;12.60;;
50309;SDS011;36207;51.850;21.698;2023-09-19T12:07:08;16.90;;;12.80;;
50309;SDS011;36207;51.850;21.698;2023-09-19T12:09:44;17.70;;;13.80;;
50309;SDS011;36207;51.850;21.698;2023-09-19T12:12:25;20.90;;;14.00;;
50309;SDS011;36207;51.850;21.698;2023-09-19T12:14:59;19.00;;;13.60;;
50309;SDS011;36207;51.850;21.698;2023-09-19T12:17:36;15.80;;;12.60;;
50309;SDS011;36207;51.850;21.698;2023-09-19T12:20:02;19.20;;;13.10;;
50309;SDS011;36207;51.850;21.698;2023-09-19T12:22:46;16.10;;;13.00;;
50309;SDS011;36207;51.850;21.698;2023-09-19T12:25:13;18.30;;;12.70;;
50309;SDS011;36207;51.850;21.698;2023-09-19T12:27:42;19.40;;;12.20;;
50309;SDS011;36207;51.850;21.698;2023-09-19T12:30:09;18.50;;;11.00;;
50309;SDS011;36207;51.850;21.698;2023-09-19T12:32:40;16.00;;;11.00;;
50309;SDS011;36207;51.850;21.698;2023-09-19T12:35:07;14.00;;;10.30;;
50309;SDS011;36207;51.850;21.698;2023-09-19T12:37:38;14.30;;;9.60;;
50309;SDS011;36207;51.850;21.698;2023-09-19T12:40:13;13.50;;;9.10;;
50309;SDS011;36207;51.850;21.698;2023-09-19T12:42:43;14.30;;;9.20;;
50309;SDS011;36207;51.850;21.698;2023-09-19T12:45:10;13.00;;;9.50;;
50309;SDS011;36207;51.850;21.698;2023-09-19T12:47:40;11.80;;;9.30;;
50309;SDS011;36207;51.850;21.698;2023-09-19T12:51:06;10.60;;;8.80;;
50309;SDS011;36207;51.850;21.698;2023-09-19T12:53:44;11.10;;;8.10;;
50309;SDS011;36207;51.850;21.698;2023-09-19T12:56:15;9.60;;;7.80;;
50309;SDS011;36207;51.850;21.698;2023-09-19T12:58:55;13.80;;;7.80;;
50309;SDS011;36207;51.850;21.698;2023-09-19T13:01:24;9.60;;;7.20;;
50309;SDS011;36207;51.850;21.698;2023-09-19T13:04:11;10.00;;;7.00;;
50309;SDS011;36207;51.850;21.698;2023-09-19T13:06:46;11.10;;;7.60;;
50309;SDS011;36207;51.850;21.698;2023-09-19T13:09:14;11.40;;;7.80;;
50309;SDS011;36207;51.850;21.698;2023-09-19T13:11:42;11.30;;;7.20;;
50309;SDS011;36207;51.850;21.698;2023-09-19T13:25:17;8.10;;;6.10;;
50309;SDS011;36207;51.850;21.698;2023-09-19T13:27:54;7.90;;;5.60;;
50309;SDS011;36207;51.850;21.698;2023-09-19T13:30:25;8.40;;;5.30;;
50309;SDS011;36207;51.850;21.698;2023-09-19T13:33:08;9.10;;;5.30;;
50309;SDS011;36207;51.850;21.698;2023-09-19T13:35:36;9.00;;;5.50;;
50309;SDS011;36207;51.850;21.698;2023-09-19T13:38:04;9.20;;;5.30;;
50309;SDS011;36207;51.850;21.698;2023-09-19T13:40:30;10.00;;;5.50;;
50309;SDS011;36207;51.850;21.698;2023-09-19T13:43:00;6.80;;;4.90;;
50309;SDS011;36207;51.850;21.698;2023-09-19T13:45:27;7.00;;;5.00;;
50309;SDS011;36207;51.850;21.698;2023-09-19T13:47:56;8.20;;;5.10;;
50309;SDS011;36207;51.850;21.698;2023-09-19T13:50:23;9.50;;;4.80;;
50309;SDS011;36207;51.850;21.698;2023-09-19T13:52:50;10.70;;;5.10;;
50309;SDS011;36207;51.850;21.698;2023-09-19T13:55:17;7.30;;;5.10;;
50309;SDS011;36207;51.850;21.698;2023-09-19T13:57:46;9.30;;;5.00;;
50309;SDS011;36207;51.850;21.698;2023-09-19T14:00:16;9.20;;;5.30;;
50309;SDS011;36207;51.850;21.698;2023-09-19T14:02:43;7.90;;;5.70;;
50309;SDS011;36207;51.850;21.698;2023-09-19T14:05:12;9.00;;;5.70;;
50309;SDS011;36207;51.850;21.698;2023-09-19T14:07:43;8.20;;;5.90;;
50309;SDS011;36207;51.850;21.698;2023-09-19T14:10:10;10.00;;;5.90;;
50309;SDS011;36207;51.850;21.698;2023-09-19T14:12:39;11.40;;;6.40;;
50309;SDS011;36207;51.850;21.698;2023-09-19T14:15:10;11.40;;;6.60;;
50309;SDS011;36207;51.850;21.698;2023-09-19T14:17:37;9.00;;;6.20;;
50309;SDS011;36207;51.850;21.698;2023-09-19T14:20:04;8.80;;;6.30;;
50309;SDS011;36207;51.850;21.698;2023-09-19T14:22:32;9.60;;;6.30;;
50309;SDS011;36207;51.850;21.698;2023-09-19T14:24:59;8.40;;;6.10;;
50309;SDS011;36207;51.850;21.698;2023-09-19T14:27:25;9.80;;;7.10;;
50309;SDS011;36207;51.850;21.698;2023-09-19T14:29:51;10.30;;;6.40;;
50309;SDS011;36207;51.850;21.698;2023-09-19T14:32:17;11.40;;;6.80;;
50309;SDS011;36207;51.850;21.698;2023-09-19T14:34:43;10.80;;;6.60;;
50309;SDS011;36207;51.850;21.698;2023-09-19T14:37:10;10.80;;;7.10;;
50309;SDS011;36207;51.850;21.698;2023-09-19T14:39:36;12.50;;;8.10;;
50309;SDS011;36207;51.850;21.698;2023-09-19T14:42:05;10.80;;;7.80;;
50309;SDS011;36207;51.850;21.698;2023-09-19T14:44:31;11.60;;;7.80;;
50309;SDS011;36207;51.850;21.698;2023-09-19T14:46:56;12.80;;;7.60;;
50309;SDS011;36207;51.850;21.698;2023-09-19T14:49:23;12.30;;;7.80;;
50309;SDS011;36207;51.850;21.698;2023-09-19T14:51:49;11.10;;;7.80;;
50309;SDS011;36207;51.850;21.698;2023-09-19T14:54:15;10.00;;;7.80;;
50309;SDS011;36207;51.850;21.698;2023-09-19T14:56:44;13.80;;;7.40;;
50309;SDS011;36207;51.850;21.698;2023-09-19T14:59:10;10.30;;;7.40;;
50309;SDS011;36207;51.850;21.698;2023-09-19T15:01:37;11.50;;;7.20;;
50309;SDS011;36207;51.850;21.698;2023-09-19T15:04:04;11.20;;;7.80;;
50309;SDS011;36207;51.850;21.698;2023-09-19T15:06:29;11.90;;;7.40;;
50309;SDS011;36207;51.850;21.698;2023-09-19T15:08:55;10.00;;;7.40;;
50309;SDS011;36207;51.850;21.698;2023-09-19T15:11:22;11.60;;;7.90;;
50309;SDS011;36207;51.850;21.698;2023-09-19T15:13:50;13.70;;;8.10;;
50309;SDS011;36207;51.850;21.698;2023-09-19T15:16:17;11.60;;;7.70;;
50309;SDS011;36207;51.850;21.698;2023-09-19T15:18:45;11.40;;;7.50;;
50309;SDS011;36207;51.850;21.698;2023-09-19T15:21:13;13.20;;;7.60;;
50309;SDS011;36207;51.850;21.698;2023-09-19T15:23:41;12.70;;;8.00;;
50309;SDS011;36207;51.850;21.698;2023-09-19T15:26:09;11.30;;;8.00;;
50309;SDS011;36207;51.850;21.698;2023-09-19T15:28:37;12.90;;;8.80;;
50309;SDS011;36207;51.850;21.698;2023-09-19T15:31:07;14.70;;;8.90;;
50309;SDS011;36207;51.850;21.698;2023-09-19T15:33:35;13.10;;;8.70;;
50309;SDS011;36207;51.850;21.698;2023-09-19T15:36:09;13.70;;;9.70;;
50309;SDS011;36207;51.850;21.698;2023-09-19T15:41:22;10.70;;;8.80;;
50309;SDS011;36207;51.850;21.698;2023-09-19T15:43:49;11.80;;;8.20;;
50309;SDS011;36207;51.850;21.698;2023-09-19T15:46:16;11.90;;;8.00;;
50309;SDS011;36207;51.850;21.698;2023-09-19T15:48:42;11.20;;;7.80;;
50309;SDS011;36207;51.850;21.698;2023-09-19T15:51:08;12.80;;;8.20;;
50309;SDS011;36207;51.850;21.698;2023-09-19T15:53:47;13.60;;;8.40;;
50309;SDS011;36207;51.850;21.698;2023-09-19T15:56:15;13.50;;;8.40;;